Tychy, Poland
Current Conditions -  °F | °C
As of 7:00 PM on Tuesday 21 Oct 2014 (Local Time) from EPKT Reporting Station
Few Clouds Few Clouds  
Wind Chill: 54°   Ceiling: Unl
Heat Index: 54°   Visibility: 6mi
Dew Point: 46°   Wind: 5mph
Humidity: 77%   Direction: 150°SSE
Pressure: 29.71"   Gusts: NA
Location:  50.16°N, 19°E
Report Text: EPKT 211700Z 15004KT 9999 FEW045 12/08 Q1006
Loading
Personal Weather Stations






























Interactive Weather Map
Tropical Storm Tracking
New forecast layout! Learn more

10-Day Weather Forecast

Advertisements
Track Severe Weather on mobile